Time;durP1;ratioP1;P1;durP2;ratioP2;P2;SDS_P1;SDS_P2;PMS_P1;PMS_P2;Temp;Humidity;BMP_temperature;BMP_pressure;BME280_temperature;BME280_humidity;BME280_pressure;Samples;Min_cycle;Max_cycle;Signal;HPM_P1;HPM_P2
2021/12/11 00:02:06;;;;;;;16.77;12.13;;;2.90;99.90;;;;;;5022393;28;20211;-73
2021/12/11 00:04:38;;;;;;;18.17;12.17;;;2.90;99.90;;;;;;5010288;28;20199;-73
2021/12/11 00:07:09;;;;;;;13.93;11.50;;;2.70;99.90;;;;;;5012226;28;20233;-73
2021/12/11 00:09:41;;;;;;;17.10;13.27;;;2.70;99.90;;;;;;5024781;28;20202;-73
2021/12/11 00:12:11;;;;;;;16.17;12.03;;;2.60;99.90;;;;;;5008547;28;20552;-73
2021/12/11 00:14:41;;;;;;;14.40;12.27;;;2.60;99.90;;;;;;5011501;28;20201;-73
2021/12/11 00:17:08;;;;;;;16.90;12.90;;;2.60;99.90;;;;;;5003909;28;20213;-73
2021/12/11 00:19:40;;;;;;;16.47;13.63;;;2.50;99.90;;;;;;5005830;28;20202;-73
2021/12/11 00:22:11;;;;;;;16.83;12.90;;;2.50;99.90;;;;;;5004994;28;20200;-73
2021/12/11 00:24:46;;;;;;;17.07;12.93;;;2.40;99.90;;;;;;5009845;28;20205;-73
2021/12/11 00:27:20;;;;;;;16.93;12.73;;;2.40;99.90;;;;;;5023043;28;20223;-73
2021/12/11 00:29:49;;;;;;;17.67;13.23;;;2.40;99.90;;;;;;5011498;28;20202;-73
2021/12/11 00:32:21;;;;;;;14.80;12.07;;;2.50;99.90;;;;;;5010731;28;20231;-73
2021/12/11 00:34:48;;;;;;;16.93;12.77;;;2.60;99.90;;;;;;5030834;28;20565;-73
2021/12/11 00:37:19;;;;;;;14.80;11.83;;;2.60;99.90;;;;;;5023172;28;20226;-73
2021/12/11 00:39:51;;;;;;;16.97;12.70;;;2.60;99.90;;;;;;5008749;28;20196;-73
2021/12/11 00:42:20;;;;;;;17.27;12.70;;;2.50;99.90;;;;;;5028111;28;20192;-73
2021/12/11 00:44:50;;;;;;;15.40;12.00;;;2.20;99.90;;;;;;5012449;28;20262;-73
2021/12/11 00:47:20;;;;;;;16.43;12.63;;;2.20;99.90;;;;;;5009395;28;20234;-73
2021/12/11 00:49:52;;;;;;;17.00;13.37;;;2.20;99.90;;;;;;5011140;28;20553;-73
2021/12/11 00:52:28;;;;;;;16.60;12.43;;;2.20;99.90;;;;;;5027910;28;20203;-73
2021/12/11 00:55:08;;;;;;;14.73;13.17;;;2.20;99.90;;;;;;5012592;28;20195;-73
2021/12/11 00:57:36;;;;;;;20.40;14.20;;;2.10;99.90;;;;;;5010102;28;20585;-73
2021/12/11 01:00:11;;;;;;;18.23;14.47;;;2.10;99.90;;;;;;5009813;28;20562;-73
2021/12/11 01:02:38;;;;;;;19.27;13.17;;;2.00;99.90;;;;;;5007560;28;20206;-73
2021/12/11 01:05:09;;;;;;;19.67;14.10;;;1.90;99.90;;;;;;5010392;28;20205;-73
2021/12/11 01:07:37;;;;;;;18.53;15.67;;;1.80;99.90;;;;;;5008050;28;20225;-73
2021/12/11 01:10:10;;;;;;;22.27;15.23;;;1.70;99.90;;;;;;5012344;28;20192;-73
2021/12/11 01:12:44;;;;;;;21.70;15.70;;;1.70;99.90;;;;;;5006042;28;20203;-72
2021/12/11 01:15:16;;;;;;;18.03;15.00;;;1.90;99.90;;;;;;5006180;28;20197;-73
2021/12/11 01:17:59;;;;;;;18.67;15.20;;;1.80;99.90;;;;;;5021466;28;20709;-73
2021/12/11 01:20:35;;;;;;;17.90;15.00;;;1.70;99.90;;;;;;5008851;28;20658;-73
2021/12/11 01:23:05;;;;;;;20.37;14.20;;;1.80;99.90;;;;;;5024569;28;20204;-73
2021/12/11 01:25:34;;;;;;;17.53;14.77;;;1.70;99.90;;;;;;5026533;28;20208;-73
2021/12/11 01:28:03;;;;;;;21.23;15.47;;;1.60;99.90;;;;;;5011480;28;20215;-73
2021/12/11 01:30:34;;;;;;;17.07;15.30;;;1.80;99.90;;;;;;5023295;28;20200;-73
2021/12/11 01:33:03;;;;;;;19.87;14.53;;;1.80;99.90;;;;;;5026899;28;20230;-73
2021/12/11 01:35:31;;;;;;;22.97;15.20;;;1.80;99.90;;;;;;5011581;28;20557;-73
2021/12/11 01:38:04;;;;;;;19.57;14.33;;;1.70;99.90;;;;;;5016356;28;20228;-72
2021/12/11 01:40:32;;;;;;;19.13;14.53;;;1.70;99.90;;;;;;5019743;28;20209;-72
2021/12/11 01:43:38;;;;;;;17.50;14.30;;;1.60;99.90;;;;;;5023998;28;20651;-72
2021/12/11 01:46:07;;;;;;;19.57;15.23;;;1.70;99.90;;;;;;5010671;28;20222;-72
2021/12/11 01:48:39;;;;;;;20.97;15.13;;;1.50;99.90;;;;;;5034868;28;20228;-72
2021/12/11 01:51:11;;;;;;;19.93;15.00;;;1.50;99.90;;;;;;5036094;28;20203;-72
2021/12/11 01:53:42;;;;;;;22.03;15.90;;;1.60;99.90;;;;;;5014583;28;20195;-72
2021/12/11 01:56:13;;;;;;;18.03;14.97;;;1.60;99.90;;;;;;5029819;28;20196;-73
2021/12/11 01:58:46;;;;;;;18.60;15.37;;;1.60;99.90;;;;;;5019333;28;20207;-73
2021/12/11 02:01:17;;;;;;;21.70;15.93;;;1.50;99.90;;;;;;5029727;28;20199;-73
2021/12/11 02:03:45;;;;;;;20.90;15.50;;;1.40;99.90;;;;;;5013040;28;20191;-72
2021/12/11 02:06:13;;;;;;;20.53;14.53;;;1.40;99.90;;;;;;5032538;28;20223;-72
2021/12/11 02:08:43;;;;;;;18.37;14.53;;;1.40;99.90;;;;;;5032280;28;20193;-72
2021/12/11 02:11:13;;;;;;;18.03;14.50;;;1.40;99.90;;;;;;5014503;28;20201;-72
2021/12/11 02:13:47;;;;;;;20.23;15.10;;;1.40;99.90;;;;;;5019688;28;20221;-72
2021/12/11 02:16:19;;;;;;;18.43;15.67;;;1.30;99.90;;;;;;5010938;28;20216;-72
2021/12/11 02:18:50;;;;;;;18.77;15.17;;;1.20;99.90;;;;;;5033352;28;20199;-72
2021/12/11 02:21:20;;;;;;;24.30;15.33;;;1.30;99.90;;;;;;5017745;28;20200;-72
2021/12/11 02:23:57;;;;;;;17.47;13.70;;;1.30;99.90;;;;;;5024934;28;20207;-72
2021/12/11 02:26:25;;;;;;;19.13;15.47;;;1.40;99.90;;;;;;5015212;28;20212;-72
2021/12/11 02:28:58;;;;;;;19.90;13.87;;;1.60;99.90;;;;;;5031805;28;20201;-73
2021/12/11 02:31:31;;;;;;;19.13;13.87;;;1.60;99.90;;;;;;5019155;28;20201;-73
2021/12/11 02:34:08;;;;;;;23.47;15.37;;;1.70;99.90;;;;;;5031393;28;20211;-73
2021/12/11 02:36:40;;;;;;;17.50;14.20;;;1.60;99.90;;;;;;5019086;28;20586;-73
2021/12/11 02:39:46;;;;;;;18.33;14.67;;;1.40;99.90;;;;;;5019126;28;20197;-72
2021/12/11 02:42:21;;;;;;;19.13;14.77;;;1.30;99.90;;;;;;5026876;28;20183;-72
2021/12/11 02:44:56;;;;;;;21.17;15.33;;;1.20;99.90;;;;;;5017776;28;20669;-73
2021/12/11 02:47:27;;;;;;;21.33;15.43;;;1.20;99.90;;;;;;5030887;28;20709;-73
2021/12/11 02:50:01;;;;;;;19.10;15.93;;;1.10;99.90;;;;;;5024708;28;20202;-73
2021/12/11 02:52:32;;;;;;;22.03;17.00;;;0.90;99.90;;;;;;5030352;28;20215;-74
2021/12/11 02:55:07;;;;;;;22.00;16.67;;;0.90;99.90;;;;;;5032981;28;20209;-74
2021/12/11 02:57:37;;;;;;;18.57;15.57;;;1.20;99.90;;;;;;5014530;28;20231;-74
2021/12/11 03:00:13;;;;;;;21.37;15.63;;;1.40;99.90;;;;;;5026651;28;20207;-74
2021/12/11 03:02:47;;;;;;;19.07;15.00;;;1.40;99.90;;;;;;5005348;28;20206;-74
2021/12/11 03:05:17;;;;;;;17.43;15.30;;;1.40;99.90;;;;;;5028787;28;20206;-74
2021/12/11 03:07:50;;;;;;;25.60;15.90;;;1.30;99.90;;;;;;5026019;28;20216;-74
2021/12/11 03:10:47;;;;;;;20.40;16.27;;;1.30;99.90;;;;;;5003492;28;20216;-74
2021/12/11 03:13:16;;;;;;;21.67;15.73;;;1.30;99.90;;;;;;5015213;28;20200;-74
2021/12/11 03:15:44;;;;;;;21.20;15.50;;;1.20;99.90;;;;;;5023433;28;20213;-74
2021/12/11 03:18:13;;;;;;;25.60;18.47;;;1.20;99.90;;;;;;5011320;28;20227;-73
2021/12/11 03:20:41;;;;;;;20.57;16.80;;;1.30;99.90;;;;;;5009137;28;20244;-73
2021/12/11 03:23:09;;;;;;;23.13;16.57;;;1.10;99.90;;;;;;5024581;28;20192;-73
2021/12/11 03:25:38;;;;;;;21.70;16.03;;;1.10;99.90;;;;;;5016775;28;20196;-73
2021/12/11 03:28:07;;;;;;;24.67;18.03;;;1.10;99.90;;;;;;5026552;28;20238;-73
2021/12/11 03:30:39;;;;;;;20.67;16.67;;;1.10;99.90;;;;;;5029205;28;20577;-73
2021/12/11 03:33:09;;;;;;;23.47;17.10;;;1.10;99.90;;;;;;5031161;28;20207;-73
2021/12/11 03:35:38;;;;;;;23.47;16.17;;;1.20;99.90;;;;;;5008610;28;20662;-73
2021/12/11 03:38:09;;;;;;;22.23;16.07;;;1.20;99.90;;;;;;5008535;28;20220;-73
2021/12/11 03:40:47;;;;;;;21.57;15.47;;;1.30;99.90;;;;;;5010891;28;20210;-72
2021/12/11 03:43:17;;;;;;;17.50;14.93;;;1.20;99.90;;;;;;5010294;28;20200;-72
2021/12/11 03:45:51;;;;;;;21.07;16.67;;;1.30;99.90;;;;;;5010407;28;20661;-72
2021/12/11 03:48:24;;;;;;;20.80;16.97;;;1.10;99.90;;;;;;5014019;28;20226;-73
2021/12/11 03:50:52;;;;;;;23.07;16.83;;;1.30;99.90;;;;;;5005358;28;20196;-74
2021/12/11 03:53:20;;;;;;;20.87;16.10;;;1.20;99.90;;;;;;5026947;28;20196;-74
2021/12/11 03:55:51;;;;;;;23.77;17.43;;;1.10;99.90;;;;;;5009618;28;20192;-72
2021/12/11 03:58:19;;;;;;;21.83;16.53;;;1.00;99.90;;;;;;5010869;28;20311;-73
2021/12/11 04:00:52;;;;;;;22.47;16.63;;;1.10;99.90;;;;;;5008655;28;20192;-73
2021/12/11 04:03:23;;;;;;;19.17;16.00;;;1.20;99.90;;;;;;5012041;28;20258;-73
2021/12/11 04:05:51;;;;;;;20.17;15.70;;;1.20;99.90;;;;;;5027824;28;20208;-72
2021/12/11 04:08:21;;;;;;;21.00;16.33;;;1.30;99.90;;;;;;5008277;28;20212;-72
2021/12/11 04:10:49;;;;;;;22.13;16.37;;;1.10;99.90;;;;;;5023901;28;20201;-72
2021/12/11 04:13:17;;;;;;;23.13;16.17;;;1.00;99.90;;;;;;5010422;28;20192;-72
2021/12/11 04:15:47;;;;;;;23.40;16.40;;;1.00;99.90;;;;;;5010200;28;20205;-72
2021/12/11 04:18:16;;;;;;;21.43;16.57;;;1.00;99.90;;;;;;5011809;28;20287;-72
2021/12/11 04:21:01;;;;;;;22.50;17.00;;;1.10;99.90;;;;;;5026840;28;20191;-72
2021/12/11 04:23:28;;;;;;;28.47;16.80;;;0.90;99.90;;;;;;5010743;28;20215;-72
2021/12/11 04:25:58;;;;;;;26.07;17.80;;;0.90;99.90;;;;;;5012763;28;20199;-74
2021/12/11 04:28:29;;;;;;;29.27;19.00;;;0.80;99.90;;;;;;5023502;28;20234;-74
2021/12/11 04:31:04;;;;;;;33.47;18.53;;;0.70;99.90;;;;;;5025823;28;20226;-74
2021/12/11 04:33:37;;;;;;;33.73;19.70;;;0.60;99.90;;;;;;5012672;28;20684;-74
2021/12/11 04:36:06;;;;;;;32.30;19.57;;;0.60;99.90;;;;;;5011818;28;20196;-74
2021/12/11 04:38:33;;;;;;;34.27;19.13;;;0.60;99.90;;;;;;5019699;28;20215;-74
2021/12/11 04:41:02;;;;;;;49.00;23.30;;;0.60;99.90;;;;;;5015276;28;20207;-74
2021/12/11 04:43:32;;;;;;;42.80;20.60;;;0.50;99.90;;;;;;5024145;28;20203;-74
2021/12/11 04:46:05;;;;;;;58.93;23.37;;;0.40;99.90;;;;;;5023849;28;20191;-74
2021/12/11 04:48:44;;;;;;;71.60;24.57;;;0.30;99.90;;;;;;5012725;28;20223;-74
2021/12/11 04:51:20;;;;;;;53.50;21.50;;;0.20;99.90;;;;;;5021862;28;20204;-75
2021/12/11 04:54:06;;;;;;;62.47;23.27;;;0.40;99.90;;;;;;5005439;28;20201;-75
2021/12/11 04:59:52;;;;;;;60.47;23.67;;;0.30;99.90;;;;;;5006217;28;20204;-74
2021/12/11 05:02:56;;;;;;;40.97;21.60;;;0.40;99.90;;;;;;5028356;28;20207;-74
2021/12/11 05:05:42;;;;;;;43.47;22.57;;;0.50;99.90;;;;;;5026500;28;20211;-74
2021/12/11 05:08:36;;;;;;;111.50;27.03;;;0.50;99.90;;;;;;5019513;28;20229;-74
2021/12/11 05:11:05;;;;;;;53.00;24.40;;;0.40;99.90;;;;;;5014970;28;20207;-74
2021/12/11 05:13:33;;;;;;;42.17;24.80;;;0.50;99.90;;;;;;5014540;28;20208;-74
2021/12/11 05:16:06;;;;;;;48.77;25.40;;;0.60;99.90;;;;;;5010832;28;20207;-74
2021/12/11 05:18:36;;;;;;;43.90;23.83;;;0.70;99.90;;;;;;5026700;28;20225;-74
2021/12/11 05:21:08;;;;;;;47.83;24.40;;;0.60;99.90;;;;;;5009179;28;20207;-74
2021/12/11 05:23:36;;;;;;;50.03;26.23;;;0.70;99.90;;;;;;5022606;28;20195;-74
2021/12/11 05:26:04;;;;;;;48.70;25.43;;;0.60;99.90;;;;;;5021934;28;20207;-74
2021/12/11 05:28:32;;;;;;;55.03;26.27;;;0.80;99.90;;;;;;5010915;28;20223;-75
2021/12/11 05:31:02;;;;;;;75.60;26.47;;;0.80;99.90;;;;;;5007392;28;20199;-74
2021/12/11 05:33:30;;;;;;;73.87;26.53;;;0.50;99.90;;;;;;5005474;28;20208;-74
2021/12/11 05:35:57;;;;;;;96.40;29.80;;;0.50;99.90;;;;;;5004739;28;20214;-74
2021/12/11 05:38:26;;;;;;;100.90;32.63;;;0.40;99.90;;;;;;5023302;28;20207;-74
2021/12/11 05:40:57;;;;;;;63.67;29.47;;;0.40;99.90;;;;;;5023932;28;20693;-74
2021/12/11 05:43:24;;;;;;;53.37;28.67;;;0.50;99.90;;;;;;5025225;28;20222;-74
2021/12/11 05:45:52;;;;;;;60.43;29.43;;;0.50;99.90;;;;;;5010395;28;20191;-74
2021/12/11 05:48:20;;;;;;;66.77;32.07;;;0.60;99.90;;;;;;5019051;28;20233;-74
2021/12/11 05:50:51;;;;;;;60.60;31.83;;;0.60;99.90;;;;;;5024534;28;20196;-74
2021/12/11 05:53:20;;;;;;;76.87;32.67;;;0.60;99.90;;;;;;5013873;28;20223;-74
2021/12/11 05:55:50;;;;;;;61.33;32.63;;;0.60;99.90;;;;;;5024083;28;20206;-74
2021/12/11 05:58:34;;;;;;;101.33;36.67;;;0.60;99.90;;;;;;5024381;28;20231;-74
2021/12/11 06:01:22;;;;;;;108.80;36.53;;;0.60;99.90;;;;;;5008376;28;20206;-74
2021/12/11 06:03:50;;;;;;;100.63;34.80;;;0.50;99.90;;;;;;5003783;28;20207;-74
2021/12/11 06:06:18;;;;;;;87.23;31.60;;;0.50;99.90;;;;;;5026073;28;20563;-74
2021/12/11 06:08:46;;;;;;;70.03;31.50;;;0.40;99.90;;;;;;5025707;28;20223;-74
2021/12/11 06:11:16;;;;;;;94.80;34.13;;;0.50;99.90;;;;;;5013685;28;20204;-74
2021/12/11 06:13:44;;;;;;;74.37;36.10;;;0.40;99.90;;;;;;5006092;28;20199;-74
2021/12/11 06:16:12;;;;;;;84.90;34.07;;;0.40;99.90;;;;;;5009117;28;20202;-74
2021/12/11 06:18:39;;;;;;;78.37;36.40;;;0.50;99.90;;;;;;5007372;28;20723;-74
2021/12/11 06:21:07;;;;;;;66.37;34.70;;;0.60;99.90;;;;;;5003981;28;20215;-74
2021/12/11 06:23:35;;;;;;;106.00;39.63;;;0.60;99.90;;;;;;5009987;28;20195;-74
2021/12/11 06:26:03;;;;;;;95.33;37.93;;;0.50;99.90;;;;;;5025927;28;20214;-74
2021/12/11 06:28:32;;;;;;;120.20;40.90;;;0.60;99.90;;;;;;5008928;28;20232;-74
2021/12/11 06:31:02;;;;;;;148.67;43.07;;;0.70;99.90;;;;;;5026861;28;20573;-74
2021/12/11 06:33:32;;;;;;;83.73;38.00;;;0.60;99.90;;;;;;5013819;28;20211;-74
2021/12/11 06:36:02;;;;;;;121.90;45.57;;;0.80;99.90;;;;;;5009328;28;20207;-74
2021/12/11 06:38:32;;;;;;;102.00;40.07;;;0.70;99.90;;;;;;5011184;28;20262;-74
2021/12/11 06:40:59;;;;;;;95.87;42.33;;;0.60;99.90;;;;;;5011296;28;20200;-74
2021/12/11 06:43:27;;;;;;;104.57;42.20;;;0.80;99.90;;;;;;5041105;28;20647;-74
2021/12/11 06:45:56;;;;;;;88.70;40.47;;;0.80;99.90;;;;;;5029729;28;20199;-74
2021/12/11 06:48:24;;;;;;;113.87;43.10;;;0.90;99.90;;;;;;5029962;28;20219;-74
2021/12/11 06:50:53;;;;;;;107.93;41.47;;;0.80;99.90;;;;;;5005913;28;20204;-74
2021/12/11 06:53:25;;;;;;;105.20;44.13;;;0.80;99.90;;;;;;5027521;28;20215;-74
2021/12/11 06:55:55;;;;;;;111.57;41.77;;;0.80;99.90;;;;;;5025058;28;20571;-74
2021/12/11 06:58:23;;;;;;;97.80;40.40;;;1.00;99.90;;;;;;5013026;28;20234;-74
2021/12/11 07:01:12;;;;;;;99.87;41.50;;;1.00;99.90;;;;;;5023183;28;20724;-75
2021/12/11 07:03:40;;;;;;;96.97;40.97;;;1.00;99.90;;;;;;5010870;28;20192;-78
2021/12/11 07:06:09;;;;;;;105.67;39.93;;;1.10;99.90;;;;;;5014011;28;20211;-77
2021/12/11 07:08:51;;;;;;;97.40;40.97;;;1.10;99.90;;;;;;5012608;28;20219;-77
2021/12/11 07:11:19;;;;;;;101.03;41.03;;;1.20;99.90;;;;;;5002548;28;20207;-77
2021/12/11 07:13:46;;;;;;;101.20;38.90;;;1.20;99.90;;;;;;5029867;28;20204;-77
2021/12/11 07:16:15;;;;;;;110.70;41.27;;;1.20;99.90;;;;;;5008628;28;20211;-77
2021/12/11 07:18:44;;;;;;;96.00;38.20;;;1.20;99.90;;;;;;5027532;28;20650;-78
2021/12/11 07:21:12;;;;;;;91.77;38.57;;;1.30;99.90;;;;;;5027742;28;20203;-77
2021/12/11 07:23:45;;;;;;;82.80;37.23;;;1.20;99.90;;;;;;5009351;28;20203;-77
2021/12/11 07:26:46;;;;;;;95.00;39.37;;;1.30;99.90;;;;;;5012412;28;20204;-77
2021/12/11 07:29:16;;;;;;;93.30;40.70;;;1.20;99.90;;;;;;4997594;28;20209;-77
2021/12/11 07:31:48;;;;;;;100.60;40.10;;;1.30;99.90;;;;;;4999618;28;20200;-77
2021/12/11 07:34:17;;;;;;;92.10;39.70;;;1.20;99.90;;;;;;5022497;28;20199;-77
2021/12/11 07:36:45;;;;;;;98.93;41.00;;;1.20;99.90;;;;;;5032913;28;20219;-76
2021/12/11 07:39:17;;;;;;;93.90;40.30;;;1.20;99.90;;;;;;5028382;28;20215;-77
2021/12/11 07:41:45;;;;;;;100.83;40.77;;;1.20;99.90;;;;;;5011390;28;20196;-77
2021/12/11 07:44:16;;;;;;;106.60;42.70;;;1.30;99.90;;;;;;5021070;28;20201;-77
2021/12/11 07:46:46;;;;;;;105.80;45.30;;;1.20;99.90;;;;;;5016381;28;20219;-77
2021/12/11 07:49:13;;;;;;;104.47;42.97;;;1.20;99.90;;;;;;5006529;28;20223;-77
2021/12/11 07:51:41;;;;;;;101.43;42.93;;;1.30;99.90;;;;;;5011689;28;20203;-77
2021/12/11 07:54:10;;;;;;;102.90;41.20;;;1.20;99.90;;;;;;5024006;28;20214;-77
2021/12/11 07:56:38;;;;;;;100.93;42.00;;;1.20;99.90;;;;;;5011667;28;20220;-77
2021/12/11 07:59:08;;;;;;;105.33;45.90;;;1.20;99.90;;;;;;5026622;28;20210;-77
2021/12/11 08:01:38;;;;;;;102.23;45.23;;;1.40;99.90;;;;;;5017263;28;20196;-77
2021/12/11 08:04:19;;;;;;;104.43;43.33;;;1.30;99.90;;;;;;5010567;28;20196;-77
2021/12/11 08:06:48;;;;;;;97.97;43.63;;;1.40;99.90;;;;;;5010290;28;20219;-77
2021/12/11 08:09:18;;;;;;;99.57;43.90;;;1.40;99.90;;;;;;5008722;28;20246;-77
2021/12/11 08:11:46;;;;;;;105.23;43.50;;;1.50;99.90;;;;;;5008468;28;20191;-77
2021/12/11 08:14:15;;;;;;;95.53;40.33;;;1.50;99.90;;;;;;5009074;28;20207;-77
2021/12/11 08:16:46;;;;;;;87.83;39.87;;;1.50;99.90;;;;;;5022734;28;20235;-77
2021/12/11 08:19:18;;;;;;;97.10;42.43;;;1.50;99.90;;;;;;5008700;28;20203;-77
2021/12/11 08:21:47;;;;;;;88.63;40.57;;;1.50;99.90;;;;;;5028017;28;20208;-77
2021/12/11 08:24:16;;;;;;;90.80;40.50;;;1.50;99.90;;;;;;5028260;28;20208;-77
2021/12/11 08:26:44;;;;;;;84.77;39.50;;;1.50;99.90;;;;;;5027434;28;20601;-77
2021/12/11 08:29:13;;;;;;;90.17;42.30;;;1.40;99.90;;;;;;5025902;28;20202;-77
2021/12/11 08:31:52;;;;;;;91.60;40.77;;;1.60;99.90;;;;;;5022964;28;20246;-77
2021/12/11 08:34:21;;;;;;;83.60;38.63;;;1.60;99.90;;;;;;5004938;28;20214;-77
2021/12/11 08:36:49;;;;;;;81.53;38.40;;;1.70;99.90;;;;;;5026353;28;20724;-77
2021/12/11 08:39:18;;;;;;;87.10;38.63;;;1.70;99.90;;;;;;5013333;28;20211;-77
2021/12/11 08:41:48;;;;;;;73.63;36.20;;;1.60;99.90;;;;;;5003234;28;20192;-77
2021/12/11 08:44:17;;;;;;;77.20;35.10;;;1.70;99.90;;;;;;5005056;28;20292;-77
2021/12/11 08:46:52;;;;;;;79.00;37.53;;;1.70;99.90;;;;;;5000780;28;20224;-77
2021/12/11 08:49:25;;;;;;;77.07;37.20;;;1.80;99.90;;;;;;5005062;28;20277;-77
2021/12/11 08:51:56;;;;;;;77.33;34.43;;;1.80;99.90;;;;;;5022818;28;20200;-77
2021/12/11 08:54:26;;;;;;;78.27;36.27;;;1.80;99.90;;;;;;5033320;28;20196;-77
2021/12/11 08:56:56;;;;;;;85.43;37.20;;;1.90;99.90;;;;;;5032276;28;20814;-77
2021/12/11 08:59:25;;;;;;;80.83;37.07;;;1.90;99.90;;;;;;5019250;28;20208;-74
2021/12/11 09:01:56;;;;;;;79.60;36.97;;;1.90;99.90;;;;;;5025203;28;20231;-75
2021/12/11 09:04:28;;;;;;;77.83;35.83;;;1.90;99.90;;;;;;5013220;28;20205;-74
2021/12/11 09:07:00;;;;;;;78.60;35.80;;;1.90;99.90;;;;;;5025366;28;20716;-75
2021/12/11 09:09:41;;;;;;;77.37;34.47;;;1.90;99.90;;;;;;5008901;28;20203;-75
2021/12/11 09:12:13;;;;;;;73.67;33.57;;;2.00;99.90;;;;;;5010029;28;20192;-74
2021/12/11 09:14:44;;;;;;;74.17;34.53;;;2.10;99.90;;;;;;5010317;28;20253;-74
2021/12/11 09:17:17;;;;;;;66.70;34.60;;;2.10;99.90;;;;;;5024270;28;20235;-74
2021/12/11 09:19:52;;;;;;;61.67;32.97;;;2.20;99.90;;;;;;5001726;28;20203;-74
2021/12/11 09:22:26;;;;;;;62.27;32.00;;;2.30;99.90;;;;;;5028386;28;20205;-74
2021/12/11 09:24:56;;;;;;;62.83;30.37;;;2.30;99.90;;;;;;5018692;28;20216;-74
2021/12/11 09:27:29;;;;;;;61.87;32.23;;;2.20;99.90;;;;;;5007662;28;20228;-74
2021/12/11 09:30:02;;;;;;;60.13;30.57;;;2.20;99.90;;;;;;5015136;28;20204;-74
2021/12/11 09:32:33;;;;;;;66.37;32.07;;;2.40;99.90;;;;;;5019904;28;20203;-74
2021/12/11 09:35:07;;;;;;;55.47;30.50;;;2.50;99.90;;;;;;5025378;28;20211;-74
2021/12/11 09:37:35;;;;;;;58.83;31.03;;;2.40;99.90;;;;;;5005877;28;20240;-75
2021/12/11 09:40:09;;;;;;;67.43;31.27;;;2.60;99.90;;;;;;5025193;28;20197;-74
2021/12/11 09:42:36;;;;;;;59.37;30.23;;;2.60;99.90;;;;;;5025357;28;20199;-75
2021/12/11 09:45:10;;;;;;;52.93;29.47;;;2.70;99.90;;;;;;5003904;28;20214;-75
2021/12/11 09:48:04;;;;;;;60.13;29.77;;;2.70;99.90;;;;;;5005326;28;20225;-74
2021/12/11 09:50:46;;;;;;;61.90;30.63;;;2.90;99.90;;;;;;5022713;28;20217;-74
2021/12/11 09:53:16;;;;;;;57.67;29.07;;;2.80;99.90;;;;;;5027452;28;20200;-75
2021/12/11 09:55:47;;;;;;;56.60;31.47;;;2.80;99.90;;;;;;5042501;28;20573;-75
2021/12/11 09:58:20;;;;;;;56.77;31.53;;;2.80;99.90;;;;;;5008699;28;20225;-75
2021/12/11 10:01:01;;;;;;;59.80;31.17;;;2.90;99.90;;;;;;5027298;28;20193;-75
2021/12/11 10:03:38;;;;;;;64.90;32.03;;;2.90;99.90;;;;;;5012279;28;20579;-75
2021/12/11 10:06:14;;;;;;;60.40;30.57;;;2.80;99.90;;;;;;5009392;28;20539;-74
2021/12/11 10:08:56;;;;;;;59.57;31.50;;;2.80;99.90;;;;;;5024564;28;20219;-74
2021/12/11 10:11:28;;;;;;;63.97;30.70;;;2.90;99.90;;;;;;5030085;28;20221;-74
2021/12/11 10:13:59;;;;;;;56.17;30.37;;;3.00;99.90;;;;;;5026444;28;20206;-74
2021/12/11 10:16:31;;;;;;;61.37;31.43;;;3.00;99.90;;;;;;5013285;28;20815;-74
2021/12/11 10:18:59;;;;;;;54.90;28.93;;;3.00;99.90;;;;;;5003599;28;20202;-74
2021/12/11 10:21:29;;;;;;;58.60;29.77;;;3.00;99.90;;;;;;5014165;28;20199;-74
2021/12/11 10:23:59;;;;;;;56.50;31.37;;;3.10;99.90;;;;;;5009260;28;20204;-73
2021/12/11 10:26:28;;;;;;;58.23;30.60;;;3.20;99.90;;;;;;5015446;28;20204;-74
2021/12/11 10:29:00;;;;;;;54.87;28.47;;;3.30;99.90;;;;;;5009883;28;20202;-73
2021/12/11 10:31:31;;;;;;;53.53;28.33;;;3.30;99.90;;;;;;5007330;28;20210;-73
2021/12/11 10:34:00;;;;;;;56.83;29.07;;;3.30;99.90;;;;;;5013632;28;20193;-74
2021/12/11 10:36:31;;;;;;;57.30;30.00;;;3.30;99.90;;;;;;5023427;28;20200;-74
2021/12/11 10:39:00;;;;;;;58.50;30.13;;;3.30;99.90;;;;;;5014892;28;20196;-72
2021/12/11 10:41:30;;;;;;;57.37;29.27;;;3.20;99.90;;;;;;5029572;28;20193;-72
2021/12/11 10:44:25;;;;;;;56.07;28.57;;;3.10;99.90;;;;;;5035015;28;20223;-72
2021/12/11 10:46:57;;;;;;;62.27;30.57;;;3.10;99.90;;;;;;5007245;28;20219;-74
2021/12/11 10:49:25;;;;;;;62.07;30.27;;;3.00;99.90;;;;;;5034159;28;20212;-75
2021/12/11 10:51:58;;;;;;;56.80;29.70;;;3.10;99.90;;;;;;5013974;28;20232;-74
2021/12/11 10:54:28;;;;;;;49.50;27.27;;;3.00;99.90;;;;;;5022143;28;20542;-74
2021/12/11 10:56:56;;;;;;;63.47;31.53;;;3.00;99.90;;;;;;5014801;28;20219;-75
2021/12/11 10:59:29;;;;;;;61.97;30.60;;;3.00;99.90;;;;;;5031341;28;20227;-75
2021/12/11 11:02:02;;;;;;;62.70;30.43;;;3.10;99.90;;;;;;5015295;28;20199;-75
2021/12/11 11:04:37;;;;;;;54.57;27.67;;;3.10;99.90;;;;;;5022682;28;20206;-75
2021/12/11 11:07:06;;;;;;;59.40;29.40;;;3.10;99.90;;;;;;5000918;28;20237;-75
2021/12/11 11:09:34;;;;;;;59.47;30.97;;;3.20;99.90;;;;;;5003209;28;20201;-76
2021/12/11 11:12:05;;;;;;;55.40;28.37;;;3.20;99.90;;;;;;5011074;28;20212;-75
2021/12/11 11:14:33;;;;;;;55.13;27.77;;;3.20;99.90;;;;;;5015717;28;20206;-75
2021/12/11 11:17:05;;;;;;;54.33;27.53;;;3.20;99.90;;;;;;5006490;28;20696;-75
2021/12/11 11:19:34;;;;;;;54.13;27.13;;;3.20;99.90;;;;;;5028627;28;20208;-74
2021/12/11 11:22:06;;;;;;;47.80;24.67;;;3.20;99.90;;;;;;5010079;28;20192;-75
2021/12/11 11:24:39;;;;;;;53.63;26.60;;;3.30;99.90;;;;;;5024920;28;20210;-75
2021/12/11 11:27:08;;;;;;;51.37;25.17;;;3.30;99.90;;;;;;5014797;28;20231;-75
2021/12/11 11:29:38;;;;;;;46.70;24.63;;;3.40;99.90;;;;;;5006162;28;20566;-74
2021/12/11 11:32:12;;;;;;;39.73;22.10;;;3.40;99.90;;;;;;5008709;28;20226;-74
2021/12/11 11:34:41;;;;;;;44.83;23.53;;;3.40;99.90;;;;;;5019862;28;20200;-76
2021/12/11 11:37:12;;;;;;;43.60;23.33;;;3.40;99.90;;;;;;5003397;28;20226;-75
2021/12/11 11:39:39;;;;;;;31.90;17.90;;;3.40;99.90;;;;;;5004210;28;20200;-74
2021/12/11 11:42:10;;;;;;;33.17;16.87;;;3.80;99.90;;;;;;5029528;28;20203;-76
2021/12/11 11:44:40;;;;;;;37.67;19.67;;;5.50;99.90;;;;;;5006138;28;20229;-73
2021/12/11 11:47:09;;;;;;;38.20;19.73;;;6.40;99.90;;;;;;5019716;28;20233;-73
2021/12/11 11:49:37;;;;;;;36.63;20.93;;;7.10;99.90;;;;;;5011055;28;20197;-73
2021/12/11 11:52:08;;;;;;;41.67;21.93;;;6.50;99.90;;;;;;5001060;28;20213;-72
2021/12/11 11:54:38;;;;;;;38.30;22.27;;;4.90;99.90;;;;;;5012002;28;20205;-72
2021/12/11 11:57:09;;;;;;;39.50;22.30;;;4.30;99.90;;;;;;5007378;28;20221;-72
2021/12/11 11:59:39;;;;;;;34.60;19.87;;;4.10;99.90;;;;;;5014466;28;20302;-74
2021/12/11 12:02:12;;;;;;;38.77;20.80;;;4.10;99.90;;;;;;5007980;28;20228;-74
2021/12/11 12:04:41;;;;;;;36.17;20.83;;;4.00;99.90;;;;;;5013922;28;20193;-74
2021/12/11 12:07:14;;;;;;;34.63;20.60;;;3.90;99.90;;;;;;5008151;28;20232;-75
2021/12/11 12:09:45;;;;;;;37.67;19.97;;;3.90;99.90;;;;;;5032608;28;20215;-74
2021/12/11 12:12:17;;;;;;;42.80;21.33;;;3.90;99.90;;;;;;5009921;28;20211;-74
2021/12/11 12:14:46;;;;;;;39.90;21.77;;;3.90;99.90;;;;;;5009674;28;20680;-74
2021/12/11 12:17:19;;;;;;;37.17;21.07;;;4.00;99.90;;;;;;5016922;28;20619;-74
2021/12/11 12:19:47;;;;;;;36.20;21.57;;;3.90;99.90;;;;;;5023266;28;20218;-74
2021/12/11 12:22:31;;;;;;;38.03;20.97;;;3.80;99.90;;;;;;5004967;28;20206;-74
2021/12/11 12:25:28;;;;;;;37.10;21.17;;;3.80;99.90;;;;;;5021187;28;20199;-75
2021/12/11 12:28:05;;;;;;;40.83;20.80;;;3.80;99.90;;;;;;5000324;28;20698;-75
2021/12/11 12:30:38;;;;;;;37.33;21.13;;;3.90;99.90;;;;;;5008547;28;20194;-74
2021/12/11 12:33:10;;;;;;;42.93;22.67;;;4.10;99.90;;;;;;5011209;28;20227;-74
2021/12/11 12:35:38;;;;;;;35.53;21.20;;;4.20;99.90;;;;;;5009655;28;20211;-75
2021/12/11 12:38:08;;;;;;;37.63;20.77;;;4.30;99.90;;;;;;5010609;28;20239;-74
2021/12/11 12:40:39;;;;;;;36.20;20.63;;;4.50;99.90;;;;;;5002406;28;20200;-74
2021/12/11 12:43:19;;;;;;;34.83;19.37;;;4.40;99.90;;;;;;5029145;28;20201;-74
2021/12/11 12:45:51;;;;;;;32.10;20.03;;;4.40;99.90;;;;;;5019129;28;20213;-75
2021/12/11 12:48:22;;;;;;;39.00;20.93;;;4.40;99.90;;;;;;5009976;28;20225;-74
2021/12/11 12:50:53;;;;;;;33.17;19.10;;;4.50;99.90;;;;;;5026431;28;20204;-75
2021/12/11 12:53:21;;;;;;;34.47;19.97;;;4.50;99.90;;;;;;5023321;28;20220;-75
2021/12/11 12:55:52;;;;;;;35.23;19.70;;;4.50;99.90;;;;;;5026888;28;20204;-74
2021/12/11 12:58:24;;;;;;;31.10;19.90;;;4.50;99.90;;;;;;4997754;28;20670;-75
2021/12/11 13:00:55;;;;;;;31.20;20.57;;;4.50;99.90;;;;;;5002539;28;20185;-75
2021/12/11 13:03:28;;;;;;;36.13;21.67;;;4.60;99.90;;;;;;5008793;28;20204;-74